| time (UTC) | temp C | wind direction | speed KPH | gust KPH | rain 1hr cm | rain 24hr cm | rain mn cm | humidity % | barometer mb |
| 20260506122017 | 20 | 225 | 9.7 | 17.7 | 0.00 | 0.00 | 0.00 | 85 | 1014.6 |
| 20260506121017 | 19 | 225 | 9.7 | 19.3 | 0.00 | 0.00 | 0.00 | 86 | 1014.6 |
| 20260506120037 | 19 | 225 | 11.3 | 20.9 | 0.00 | 0.00 | 0.00 | 87 | 1014.8 |
| 20260506115017 | 18 | 203 | 12.9 | 20.9 | 0.00 | 0.00 | 0.00 | 87 | 1014.9 |
| 20260506114017 | 18 | 203 | 11.3 | 19.3 | 0.00 | 0.00 | 0.00 | 87 | 1014.9 |
| 20260506113037 | 18 | 225 | 9.7 | 17.7 | 0.00 | 0.00 | 0.00 | 87 | 1014.8 |
| 20260506112057 | 18 | 203 | 11.3 | 17.7 | 0.00 | 0.00 | 0.00 | 88 | 1014.7 |
| 20260506111017 | 18 | 203 | 9.7 | 16.1 | 0.00 | 0.00 | 0.00 | 89 | 1014.5 |
| 20260506110057 | 18 | 203 | 9.7 | 19.3 | 0.00 | 0.00 | 0.00 | 89 | 1014.5 |
| 20260506105017 | 17 | 203 | 8.0 | 16.1 | 0.00 | 0.00 | 0.00 | 90 | 1014.5 |
| 20260506104017 | 17 | 203 | 6.4 | 12.9 | 0.00 | 0.00 | 0.00 | 90 | 1014.7 |
| 20260506103017 | 17 | 158 | 8.0 | 14.5 | 0.00 | 0.00 | 0.00 | 90 | 1014.7 |
| 20260506102016 | 17 | 203 | 8.0 | 12.9 | 0.00 | 0.00 | 0.00 | 90 | 1014.6 |
| 20260506101016 | 17 | 158 | 8.0 | 16.1 | 0.00 | 0.00 | 0.00 | 90 | 1014.2 |
| 20260506100017 | 17 | 203 | 4.8 | 16.1 | 0.00 | 0.00 | 0.00 | 90 | 1014.2 |
| 20260506095016 | 17 | 158 | 8.0 | 12.9 | 0.00 | 0.00 | 0.00 | 89 | 1014.4 |
| 20260506094016 | 17 | 203 | 6.4 | 11.3 | 0.00 | 0.00 | 0.00 | 89 | 1014.4 |
| 20260506093016 | 17 | 203 | 8.0 | 14.5 | 0.00 | 0.00 | 0.00 | 88 | 1014.5 |
| 20260506092036 | 17 | 180 | 11.3 | 17.7 | 0.00 | 0.00 | 0.00 | 88 | 1014.6 |
| 20260506091018 | 17 | 203 | 11.3 | 19.3 | 0.00 | 0.00 | 0.00 | 88 | 1014.7 |
| 20260506090016 | 17 | 225 | 11.3 | 19.3 | 0.00 | 0.00 | 0.00 | 88 | 1014.8 |
| 20260506085036 | 17 | 203 | 11.3 | 20.9 | 0.00 | 0.00 | 0.00 | 88 | 1014.8 |
| 20260506084037 | 17 | 180 | 9.7 | 16.1 | 0.00 | 0.00 | 0.00 | 88 | 1014.7 |
| 20260506083057 | 17 | 225 | 9.7 | 17.7 | 0.00 | 0.00 | 0.00 | 88 | 1014.6 |
| 20260506082016 | 17 | 203 | 8.0 | 14.5 | 0.00 | 0.00 | 0.00 | 88 | 1014.6 |
| 20260506081016 | 17 | 203 | 9.7 | 20.9 | 0.00 | 0.00 | 0.00 | 88 | 1014.5 |
| 20260506073016 | 17 | 203 | 9.7 | 16.1 | 0.00 | 0.00 | 0.00 | 89 | 1014.6 |
| 20260506072016 | 17 | 203 | 6.4 | 11.3 | 0.00 | 0.00 | 0.00 | 89 | 1014.5 |
| 20260506071016 | 17 | 225 | 3.2 | 9.7 | 0.00 | 0.00 | 0.00 | 89 | 1014.5 |
| 20260506062059 | 18 | 225 | 9.7 | 14.5 | 0.00 | 0.00 | 0.00 | 86 | 1015.0 |
| 20260506061016 | 18 | 203 | 11.3 | 19.3 | 0.00 | 0.00 | 0.00 | 87 | 1015.2 |
| 20260506051015 | 18 | 225 | 12.9 | 24.1 | 0.00 | 0.00 | 0.00 | 87 | 1015.6 |
| 20260506045016 | 18 | 203 | 11.3 | 24.1 | 0.00 | 0.00 | 0.00 | 86 | 1015.6 |
| 20260506044036 | 18 | 203 | 12.9 | 19.3 | 0.00 | 0.00 | 0.00 | 86 | 1015.7 |
| 20260506043015 | 18 | 203 | 12.9 | 20.9 | 0.00 | 0.00 | 0.00 | 86 | 1015.9 |
| 20260506042015 | 18 | 225 | 14.5 | 20.9 | 0.00 | 0.00 | 0.00 | 86 | 1015.9 |
| 20260506041015 | 18 | 203 | 12.9 | 24.1 | 0.00 | 0.00 | 0.00 | 85 | 1016.0 |
| 20260506040016 | 18 | 203 | 14.5 | 29.0 | 0.00 | 0.00 | 0.00 | 85 | 1015.8 |
| 20260506035017 | 18 | 203 | 14.5 | 20.9 | 0.00 | 0.00 | 0.00 | 85 | 1015.8 |
| 20260506034017 | 18 | 203 | 12.9 | 20.9 | 0.00 | 0.00 | 0.00 | 85 | 1015.9 |
| 20260506033017 | 18 | 225 | 12.9 | 20.9 | 0.00 | 0.00 | 0.00 | 85 | 1015.8 |
| 20260506032018 | 18 | 203 | 12.9 | 22.5 | 0.00 | 0.00 | 0.00 | 85 | 1015.8 |
| 20260506031018 | 18 | 203 | 12.9 | 24.1 | 0.00 | 0.00 | 0.00 | 85 | 1016.0 |
| 20260506030017 | 18 | 180 | 11.3 | 24.1 | 0.00 | 0.00 | 0.00 | 84 | 1015.9 |
| 20260506025017 | 18 | 203 | 9.7 | 16.1 | 0.00 | 0.00 | 0.00 | 84 | 1015.9 |
| 20260506024017 | 19 | 203 | 11.3 | 22.5 | 0.00 | 0.00 | 0.00 | 83 | 1016.0 |
| 20260506023017 | 19 | 203 | 11.3 | 17.7 | 0.00 | 0.00 | 0.00 | 81 | 1015.9 |
| 20260506022017 | 19 | 203 | 11.3 | 19.3 | 0.00 | 0.00 | 0.00 | 80 | 1015.9 |
| 20260506021017 | 19 | 203 | 9.7 | 14.5 | 0.00 | 0.00 | 0.00 | 78 | 1015.9 |
| 20260506020017 | 20 | 203 | 11.3 | 24.1 | 0.00 | 0.00 | 0.00 | 77 | 1015.7 |
| 20260506015017 | 20 | 225 | 11.3 | 20.9 | 0.00 | 0.00 | 0.00 | 77 | 1015.6 |
| 20260506014037 | 20 | 203 | 12.9 | 20.9 | 0.00 | 0.00 | 0.00 | 77 | 1015.7 |
| 20260506013017 | 20 | 158 | 11.3 | 19.3 | 0.00 | 0.00 | 0.00 | 76 | 1015.6 |
| 20260506012017 | 20 | 203 | 9.7 | 19.3 | 0.00 | 0.00 | 0.00 | 76 | 1015.6 |
| 20260506011017 | 20 | 203 | 12.9 | 24.1 | 0.00 | 0.00 | 0.00 | 75 | 1015.5 |
| 20260506010017 | 20 | 225 | 14.5 | 30.6 | 0.00 | 0.00 | 0.00 | 75 | 1015.5 |
| 20260506005017 | 20 | 203 | 11.3 | 17.7 | 0.00 | 0.00 | 0.00 | 75 | 1015.3 |
| 20260506004017 | 21 | 203 | 12.9 | 22.5 | 0.00 | 0.00 | 0.00 | 74 | 1015.2 |
| 20260506003017 | 21 | 203 | 16.1 | 25.7 | 0.00 | 0.00 | 0.00 | 73 | 1015.2 |
| 20260506002037 | 21 | 203 | 16.1 | 33.8 | 0.00 | 0.00 | 0.00 | 72 | 1015.1 |
| 20260506001037 | 21 | 225 | 16.1 | 25.7 | 0.00 | 0.00 | 0.00 | 72 | 1015.1 |
| 20260506000017 | 21 | 225 | 17.7 | 29.0 | 0.00 | 0.00 | 0.00 | 71 | 1014.8 |
| 20260505235017 | 21 | 203 | 16.1 | 24.1 | 0.00 | 0.00 | 0.00 | 71 | 1014.8 |
| 20260505234017 | 21 | 158 | 16.1 | 24.1 | 0.00 | 0.00 | 0.00 | 70 | 1014.6 |
| 20260505233017 | 21 | 203 | 14.5 | 24.1 | 0.00 | 0.00 | 0.00 | 71 | 1014.6 |
| 20260505232017 | 22 | 225 | 12.9 | 25.7 | 0.00 | 0.00 | 0.00 | 70 | 1014.5 |
| 20260505231017 | 22 | 203 | 11.3 | 24.1 | 0.00 | 0.00 | 0.00 | 70 | 1014.5 |
| 20260505230017 | 22 | 203 | 11.3 | 20.9 | 0.00 | 0.00 | 0.00 | 69 | 1014.5 |
| 20260505225016 | 23 | 203 | 14.5 | 25.7 | 0.00 | 0.00 | 0.00 | 67 | 1014.5 |
| 20260505224037 | 23 | 203 | 14.5 | 29.0 | 0.00 | 0.00 | 0.00 | 68 | 1014.5 |
| 20260505223017 | 23 | 203 | 14.5 | 29.0 | 0.00 | 0.00 | 0.00 | 67 | 1014.5 |
| 20260505222016 | 23 | 203 | 16.1 | 32.2 | 0.00 | 0.00 | 0.00 | 67 | 1014.5 |
| 20260505221036 | 23 | 203 | 14.5 | 32.2 | 0.00 | 0.00 | 0.00 | 67 | 1014.4 |
| 20260505220017 | 23 | 225 | 14.5 | 25.7 | 0.00 | 0.00 | 0.00 | 66 | 1014.5 |
| 20260505215017 | 23 | 203 | 14.5 | 30.6 | 0.00 | 0.00 | 0.00 | 65 | 1014.4 |
| 20260505214017 | 25 | 203 | 19.3 | 41.8 | 0.00 | 0.00 | 0.00 | 63 | 1014.4 |
| 20260505213016 | 25 | 203 | 14.5 | 24.1 | 0.00 | 0.00 | 0.00 | 63 | 1014.3 |
| 20260505212016 | 25 | 225 | 16.1 | 30.6 | 0.00 | 0.00 | 0.00 | 63 | 1014.3 |
| 20260505211036 | 25 | 225 | 14.5 | 25.7 | 0.00 | 0.00 | 0.00 | 61 | 1014.3 |
| 20260505210017 | 25 | 203 | 12.9 | 29.0 | 0.00 | 0.00 | 0.00 | 61 | 1014.2 |
| 20260505205036 | 26 | 225 | 8.0 | 22.5 | 0.00 | 0.00 | 0.00 | 60 | 1014.1 |
| 20260505204016 | 26 | 180 | 14.5 | 25.7 | 0.00 | 0.00 | 0.00 | 59 | 1014.3 |
| 20260505203016 | 26 | 225 | 16.1 | 25.7 | 0.00 | 0.00 | 0.00 | 59 | 1014.2 |
| 20260505202016 | 26 | 203 | 16.1 | 32.2 | 0.00 | 0.00 | 0.00 | 57 | 1014.3 |
| 20260505201016 | 26 | 225 | 16.1 | 33.8 | 0.00 | 0.00 | 0.00 | 56 | 1014.7 |
| 20260505200016 | 26 | 180 | 14.5 | 25.7 | 0.00 | 0.00 | 0.00 | 55 | 1014.7 |
| 20260505195016 | 26 | 203 | 16.1 | 30.6 | 0.00 | 0.00 | 0.00 | 54 | 1014.9 |
| 20260505194016 | 26 | 203 | 16.1 | 25.7 | 0.00 | 0.00 | 0.00 | 53 | 1014.9 |
| 20260505193036 | 26 | 225 | 14.5 | 25.7 | 0.00 | 0.00 | 0.00 | 53 | 1015.0 |
| 20260505192016 | 26 | 225 | 14.5 | 25.7 | 0.00 | 0.00 | 0.00 | 51 | 1015.1 |
| 20260505191016 | 26 | 180 | 16.1 | 32.2 | 0.00 | 0.00 | 0.00 | 51 | 1015.4 |
| 20260505190016 | 26 | 225 | 16.1 | 29.0 | 0.00 | 0.00 | 0.00 | 51 | 1015.4 |
| 20260505185016 | 26 | 225 | 16.1 | 25.7 | 0.00 | 0.00 | 0.00 | 52 | 1015.4 |
| 20260505184036 | 26 | 225 | 16.1 | 32.2 | 0.00 | 0.00 | 0.00 | 52 | 1015.5 |
| 20260505183016 | 26 | 203 | 19.3 | 30.6 | 0.00 | 0.00 | 0.00 | 52 | 1015.5 |
| 20260505182016 | 26 | 203 | 14.5 | 22.5 | 0.00 | 0.00 | 0.00 | 54 | 1015.4 |
| 20260505181016 | 26 | 203 | 16.1 | 33.8 | 0.00 | 0.00 | 0.00 | 54 | 1015.6 |
| 20260505180016 | 26 | 225 | 16.1 | 32.2 | 0.00 | 0.00 | 0.00 | 54 | 1015.8 |
| 20260505175016 | 26 | 225 | 14.5 | 25.7 | 0.00 | 0.00 | 0.00 | 55 | 1015.8 |
| 20260505174016 | 26 | 225 | 14.5 | 30.6 | 0.00 | 0.00 | 0.00 | 55 | 1015.9 |
| 20260505173016 | 25 | 203 | 12.9 | 24.1 | 0.00 | 0.00 | 0.00 | 54 | 1015.9 |
| 20260505172016 | 25 | 158 | 12.9 | 22.5 | 0.00 | 0.00 | 0.00 | 57 | 1016.0 |
| 20260505171015 | 25 | 225 | 20.9 | 32.2 | 0.00 | 0.00 | 0.00 | 53 | 1016.0 |
| 20260505170036 | 25 | 225 | 19.3 | 35.4 | 0.00 | 0.00 | 0.00 | 51 | 1016.2 |
| 20260505165036 | 25 | 225 | 20.9 | 30.6 | 0.00 | 0.00 | 0.00 | 53 | 1016.3 |
| 20260505164016 | 25 | 225 | 20.9 | 30.6 | 0.00 | 0.00 | 0.00 | 54 | 1016.4 |
| 20260505163016 | 24 | 225 | 19.3 | 30.6 | 0.00 | 0.00 | 0.00 | 55 | 1016.5 |
| 20260505162036 | 24 | 203 | 22.5 | 32.2 | 0.00 | 0.00 | 0.00 | 56 | 1016.7 |
| 20260505161036 | 24 | 225 | 20.9 | 30.6 | 0.00 | 0.00 | 0.00 | 56 | 1016.9 |
| 20260505153037 | 23 | 203 | 17.7 | 30.6 | 0.00 | 0.00 | 0.00 | 59 | 1016.9 |
| 20260505152038 | 23 | 225 | 17.7 | 29.0 | 0.00 | 0.00 | 0.00 | 60 | 1017.0 |
| 20260505151017 | 23 | 225 | 19.3 | 24.1 | 0.00 | 0.00 | 0.00 | 61 | 1016.9 |
| 20260505125017 | 19 | 225 | 19.3 | 29.0 | 0.00 | 0.00 | 0.00 | 73 | 1017.1 |
| 20260505124037 | 19 | 225 | 16.1 | 20.9 | 0.00 | 0.00 | 0.00 | 74 | 1017.0 |
| 20260505123017 | 18 | 225 | 14.5 | 22.5 | 0.00 | 0.00 | 0.00 | 75 | 1016.9 |